Cravat, Illinois
Current Conditions -  °F | °C
As of 6:15 PM on Wednesday 26 Nov 2014 (Local Time) from KENL Reporting Station
Light Snow Light Snow  
Wind Chill: 27°   Ceiling: 500
Heat Index: 32°   Visibility: 1.7mi
Dew Point: 31°   Wind: 5mph
Humidity: 96%   Direction: 70°ENE
Pressure: 30.04"   Gusts: NA
Location:  38.5134°N, 89.1673°W
Report Text: KENL 270015Z AUTO 07004KT 1 3/4SM -SN OVC005 00/00 A3004 RMK AO2 T00001005
Loading
Personal Weather Stations






























Interactive Weather Map New forecast layout! Learn more

10-Day Weather Forecast

Advertisements
Track Severe Weather on mobile